createdAt,value
2019-03-01T00:02:05.260Z,15.83
2019-03-01T00:05:23.996Z,8.80
2019-03-01T00:08:17.145Z,8.90
2019-03-01T00:11:22.456Z,8.63
2019-03-01T00:14:23.984Z,14.07
2019-03-01T00:17:30.994Z,11.17
2019-03-01T00:20:26.677Z,13.10
2019-03-01T00:23:54.892Z,10.53
2019-03-01T00:27:08.531Z,11.90
2019-03-01T00:30:14.089Z,9.83
2019-03-01T00:33:20.581Z,12.83
2019-03-01T00:36:36.653Z,10.93
2019-03-01T00:39:27.997Z,19.63
2019-03-01T00:42:32.262Z,21.63
2019-03-01T00:45:01.545Z,20.50
2019-03-01T00:47:30.902Z,18.37
2019-03-01T00:50:00.364Z,18.33
2019-03-01T00:52:29.725Z,22.80
2019-03-01T00:54:59.044Z,16.10
2019-03-01T00:57:28.363Z,14.87
2019-03-01T00:59:58.007Z,11.43
2019-03-01T01:02:27.388Z,14.50
2019-03-01T01:04:56.703Z,13.60
2019-03-01T01:07:26.496Z,13.73
2019-03-01T01:09:55.923Z,20.40
2019-03-01T01:12:27.540Z,20.43
2019-03-01T01:14:56.876Z,19.40
2019-03-01T01:17:26.202Z,17.13
2019-03-01T01:19:55.528Z,14.80
2019-03-01T01:22:25.060Z,19.73
2019-03-01T01:24:54.339Z,14.00
2019-03-01T01:27:24.317Z,14.93
2019-03-01T01:29:53.646Z,11.50
2019-03-01T01:32:22.948Z,10.13
2019-03-01T01:34:52.254Z,11.73
2019-03-01T01:37:21.539Z,12.60
2019-03-01T01:39:50.915Z,13.60
2019-03-01T01:42:20.302Z,12.43
2019-03-01T01:44:49.658Z,11.90
2019-03-01T01:47:18.985Z,14.80
2019-03-01T01:49:48.847Z,7.90
2019-03-01T01:52:18.235Z,10.47
2019-03-01T01:54:47.559Z,7.77
2019-03-01T01:57:16.885Z,12.63
2019-03-01T01:59:46.193Z,16.87
2019-03-01T02:02:15.505Z,11.57
2019-03-01T02:04:44.799Z,13.67
2019-03-01T02:07:14.110Z,9.63
2019-03-01T02:09:43.409Z,10.83
2019-03-01T02:12:12.941Z,10.50
2019-03-01T02:14:42.247Z,14.47
2019-03-01T02:17:11.631Z,11.00
2019-03-01T02:19:40.916Z,16.30
2019-03-01T02:22:10.641Z,15.43
2019-03-01T02:24:39.957Z,11.93
2019-03-01T02:27:23.154Z,9.13
2019-03-01T02:29:52.483Z,11.33
2019-03-01T02:32:28.500Z,13.67
2019-03-01T02:34:57.789Z,8.57
2019-03-01T02:37:27.089Z,8.00
2019-03-01T02:39:56.468Z,8.63
2019-03-01T02:42:25.796Z,6.50
2019-03-01T02:44:55.117Z,7.20
2019-03-01T02:47:24.383Z,11.87
2019-03-01T02:49:53.744Z,13.40
2019-03-01T02:52:23.123Z,12.43
2019-03-01T02:54:52.747Z,6.73
2019-03-01T02:57:22.108Z,14.57
2019-03-01T02:59:51.417Z,6.60
2019-03-01T03:02:20.708Z,5.47
2019-03-01T03:04:50.032Z,6.80
2019-03-01T03:07:27.824Z,7.70
2019-03-01T03:09:57.528Z,12.83
2019-03-01T03:12:26.903Z,8.67
2019-03-01T03:14:56.691Z,7.10
2019-03-01T03:17:26.015Z,7.50
2019-03-01T03:19:55.434Z,7.47
2019-03-01T03:22:24.752Z,9.37
2019-03-01T03:24:54.075Z,8.97
2019-03-01T03:27:23.456Z,7.63
2019-03-01T03:29:52.756Z,9.87
2019-03-01T03:32:22.064Z,8.40
2019-03-01T03:34:51.410Z,9.03
2019-03-01T03:37:20.811Z,8.00
2019-03-01T03:39:50.130Z,10.03
2019-03-01T03:42:19.488Z,12.77
2019-03-01T03:44:48.773Z,12.10
2019-03-01T03:47:18.425Z,8.70
2019-03-01T03:49:47.803Z,9.80
2019-03-01T03:52:17.202Z,10.30
2019-03-01T03:54:46.869Z,11.00
2019-03-01T03:57:16.172Z,10.90
2019-03-01T03:59:45.469Z,14.60
2019-03-01T04:02:14.882Z,12.47
2019-03-01T04:04:44.413Z,15.73
2019-03-01T04:07:13.742Z,19.00
2019-03-01T04:09:43.203Z,14.43
2019-03-01T04:12:12.600Z,16.23
2019-03-01T04:14:41.989Z,16.53
2019-03-01T04:17:11.351Z,14.17
2019-03-01T04:19:40.733Z,16.17
2019-03-01T04:22:10.150Z,15.97
2019-03-01T04:24:39.447Z,19.80
2019-03-01T04:27:08.783Z,16.70
2019-03-01T04:29:38.242Z,21.60
2019-03-01T04:32:07.680Z,15.20
2019-03-01T04:34:36.964Z,14.73
2019-03-01T04:37:06.323Z,17.00
2019-03-01T04:39:35.614Z,17.23
2019-03-01T04:42:05.018Z,15.10
2019-03-01T04:44:34.364Z,15.93
2019-03-01T04:47:03.676Z,17.53
2019-03-01T04:49:33.030Z,17.00
2019-03-01T04:52:47.761Z,17.40
2019-03-01T04:55:22.297Z,14.70
2019-03-01T04:57:51.648Z,20.37
2019-03-01T05:00:22.905Z,15.30
2019-03-01T05:02:52.862Z,17.90
2019-03-01T05:05:22.170Z,13.17
2019-03-01T05:07:51.556Z,17.30
2019-03-01T05:10:20.955Z,22.70
2019-03-01T05:12:50.277Z,17.10
2019-03-01T05:15:21.208Z,17.83
2019-03-01T05:17:53.233Z,18.17
2019-03-01T05:20:22.837Z,20.87
2019-03-01T05:22:52.543Z,18.17
2019-03-01T05:25:21.872Z,17.13
2019-03-01T05:27:51.165Z,18.47
2019-03-01T05:30:20.538Z,18.20
2019-03-01T05:32:49.878Z,26.27
2019-03-01T05:35:19.270Z,19.70
2019-03-01T05:37:48.938Z,19.43
2019-03-01T05:40:18.363Z,16.40
2019-03-01T05:42:47.695Z,22.20
2019-03-01T05:45:19.694Z,17.30
2019-03-01T05:47:48.983Z,23.43
2019-03-01T05:50:18.366Z,20.77
2019-03-01T05:52:47.685Z,22.03
2019-03-01T05:55:17.054Z,28.63
2019-03-01T05:58:41.880Z,24.27
2019-03-01T06:01:45.973Z,31.90
2019-03-01T06:04:38.253Z,44.43
2019-03-01T06:07:32.790Z,55.03
2019-03-01T06:10:32.317Z,67.43
2019-03-01T06:13:25.250Z,67.77
2019-03-01T06:16:26.104Z,74.93
2019-03-01T06:19:44.721Z,90.37
2019-03-01T06:23:06.308Z,71.47
2019-03-01T06:26:19.058Z,95.80
2019-03-01T06:29:38.024Z,96.93
2019-03-01T06:32:42.500Z,106.40
2019-03-01T06:35:43.437Z,112.17
2019-03-01T06:39:13.760Z,120.77
2019-03-01T06:42:12.795Z,113.37
2019-03-01T06:45:20.310Z,114.20
2019-03-01T06:47:50.554Z,123.03
2019-03-01T06:50:33.574Z,138.83
2019-03-01T06:53:02.927Z,114.93
2019-03-01T06:55:38.249Z,163.53
2019-03-01T06:58:09.824Z,140.23
2019-03-01T07:00:49.764Z,133.93
2019-03-01T07:03:13.968Z,148.10
2019-03-01T07:05:43.430Z,152.73
2019-03-01T07:08:12.794Z,170.00
2019-03-01T07:10:42.233Z,163.30
2019-03-01T07:13:11.555Z,148.23
2019-03-01T07:15:40.860Z,150.87
2019-03-01T07:18:10.182Z,158.47
2019-03-01T07:20:39.464Z,130.20
2019-03-01T07:23:08.764Z,150.33
2019-03-01T07:25:38.460Z,136.77
2019-03-01T07:28:08.104Z,134.10
2019-03-01T07:30:37.770Z,136.90
2019-03-01T07:33:08.278Z,130.17
2019-03-01T07:35:37.617Z,131.43
2019-03-01T07:38:07.318Z,130.10
2019-03-01T07:40:36.723Z,143.13
2019-03-01T07:43:07.641Z,143.70
2019-03-01T07:45:37.218Z,139.93
2019-03-01T07:48:06.539Z,140.20
2019-03-01T07:50:35.906Z,143.97
2019-03-01T07:53:05.326Z,142.03
2019-03-01T07:55:35.185Z,148.63
2019-03-01T07:58:04.504Z,157.50
2019-03-01T08:00:34.663Z,162.70
2019-03-01T08:03:04.352Z,183.07
2019-03-01T08:05:35.527Z,173.90
2019-03-01T08:08:04.821Z,171.73
2019-03-01T08:10:34.963Z,196.83
2019-03-01T08:13:04.318Z,188.90
2019-03-01T08:15:34.082Z,188.23
2019-03-01T08:18:04.666Z,185.33
2019-03-01T08:20:34.793Z,178.87
2019-03-01T08:23:04.526Z,186.90
2019-03-01T08:25:33.931Z,194.13
2019-03-01T08:28:03.279Z,155.13
2019-03-01T08:30:32.708Z,159.43
2019-03-01T08:33:02.664Z,152.67
2019-03-01T08:35:33.827Z,164.47
2019-03-01T08:38:03.432Z,153.77
2019-03-01T08:40:32.788Z,155.43
2019-03-01T08:43:02.151Z,152.30
2019-03-01T08:45:33.041Z,134.33
2019-03-01T08:48:03.458Z,144.67
2019-03-01T08:50:32.788Z,149.53
2019-03-01T08:53:02.169Z,141.57
2019-03-01T08:55:31.525Z,148.83
2019-03-01T08:58:03.482Z,143.80
2019-03-01T09:00:32.787Z,144.13
2019-03-01T09:03:16.304Z,127.13
2019-03-01T09:05:46.516Z,129.10
2019-03-01T09:08:15.948Z,137.00
2019-03-01T09:10:45.359Z,111.47
2019-03-01T09:13:15.281Z,112.13
2019-03-01T09:15:46.128Z,114.80
2019-03-01T09:18:15.767Z,109.27
2019-03-01T09:20:45.407Z,120.30
2019-03-01T09:23:22.834Z,113.50
2019-03-01T09:25:46.813Z,100.90
2019-03-01T09:28:16.752Z,109.33
2019-03-01T09:30:46.075Z,104.43
2019-03-01T09:33:17.199Z,108.03
2019-03-01T09:35:57.143Z,114.40
2019-03-01T09:38:26.472Z,109.87
2019-03-01T09:40:57.437Z,100.10
2019-03-01T09:43:27.871Z,92.57
2019-03-01T09:45:58.032Z,96.73
2019-03-01T09:48:27.360Z,85.83
2019-03-01T09:50:57.279Z,83.77
2019-03-01T09:53:26.804Z,91.60
2019-03-01T09:55:56.144Z,71.93
2019-03-01T09:58:25.917Z,76.33
2019-03-01T10:00:59.434Z,75.00
2019-03-01T10:03:28.784Z,83.83
2019-03-01T10:05:58.197Z,62.87
2019-03-01T10:08:27.520Z,74.87
2019-03-01T10:10:56.907Z,79.87
2019-03-01T10:13:26.247Z,60.63
2019-03-01T10:15:55.586Z,70.63
2019-03-01T10:18:24.902Z,58.27
2019-03-01T10:20:54.311Z,56.50
2019-03-01T10:23:23.736Z,50.10
2019-03-01T10:25:53.570Z,48.07
2019-03-01T10:28:22.997Z,53.67
2019-03-01T10:30:52.318Z,55.03
2019-03-01T10:33:21.628Z,53.13
2019-03-01T10:35:51.756Z,48.87
2019-03-01T10:38:21.472Z,45.23
2019-03-01T10:40:50.948Z,40.80
2019-03-01T10:43:20.319Z,43.93
2019-03-01T10:45:49.739Z,45.47
2019-03-01T10:48:20.457Z,40.33
2019-03-01T10:50:49.792Z,41.90
2019-03-01T10:53:19.132Z,38.27
2019-03-01T10:55:48.533Z,45.50
2019-03-01T10:58:22.082Z,36.30
2019-03-01T11:00:51.416Z,31.50
2019-03-01T11:03:21.162Z,45.70
2019-03-01T11:05:50.643Z,37.83
2019-03-01T11:08:20.291Z,32.37
2019-03-01T11:10:53.770Z,34.17
2019-03-01T11:13:23.161Z,46.90
2019-03-01T11:15:52.532Z,41.43
2019-03-01T11:18:21.845Z,36.80
2019-03-01T11:20:51.211Z,44.00
2019-03-01T11:23:20.540Z,42.47
2019-03-01T11:25:49.891Z,38.77
2019-03-01T11:28:19.337Z,46.50
2019-03-01T11:30:48.722Z,41.53
2019-03-01T11:33:18.643Z,41.83
2019-03-01T11:35:48.139Z,41.77
2019-03-01T11:38:17.560Z,43.10
2019-03-01T11:40:46.927Z,48.50
2019-03-01T11:43:16.436Z,39.53
2019-03-01T11:45:45.890Z,34.73
2019-03-01T11:48:15.485Z,34.27
2019-03-01T11:50:44.988Z,35.97
2019-03-01T11:53:14.381Z,38.80
2019-03-01T11:55:43.767Z,36.77
2019-03-01T11:58:13.118Z,36.87
2019-03-01T12:00:52.138Z,43.73
2019-03-01T12:03:15.481Z,42.20
2019-03-01T12:05:45.366Z,42.33
2019-03-01T12:08:15.057Z,45.87
2019-03-01T12:10:44.365Z,47.60
2019-03-01T12:13:13.790Z,52.00
2019-03-01T12:15:43.714Z,51.53
2019-03-01T12:18:13.373Z,52.73
2019-03-01T12:20:42.984Z,61.57
2019-03-01T12:23:12.341Z,66.43
2019-03-01T12:25:41.716Z,55.13
2019-03-01T12:28:11.447Z,79.93
2019-03-01T12:30:40.867Z,76.50
2019-03-01T12:33:10.320Z,90.70
2019-03-01T12:35:39.824Z,83.60
2019-03-01T12:38:09.177Z,94.33
2019-03-01T12:40:38.817Z,104.77
2019-03-01T12:43:08.184Z,92.00
2019-03-01T12:45:37.487Z,94.93
2019-03-01T12:48:06.828Z,95.37
2019-03-01T12:50:36.157Z,88.37
2019-03-01T12:53:05.776Z,91.23
2019-03-01T12:55:35.430Z,106.40
2019-03-01T12:58:04.731Z,100.10
2019-03-01T13:00:36.891Z,101.00
2019-03-01T13:03:09.096Z,77.87
2019-03-01T13:05:37.624Z,49.47
2019-03-01T13:08:08.012Z,39.77
2019-03-01T13:10:40.326Z,31.50
2019-03-01T13:13:08.746Z,30.33
2019-03-01T13:15:38.198Z,20.80
2019-03-01T13:18:09.797Z,24.57
2019-03-01T13:20:38.584Z,25.23
2019-03-01T13:23:08.294Z,40.13
2019-03-01T13:25:37.648Z,49.67
2019-03-01T13:28:06.944Z,42.67
2019-03-01T13:30:37.356Z,34.97
2019-03-01T13:33:06.724Z,44.00
2019-03-01T13:35:36.121Z,51.67
2019-03-01T13:38:05.832Z,53.63
2019-03-01T13:40:35.254Z,49.17
2019-03-01T13:43:04.517Z,39.90
2019-03-01T13:45:34.305Z,42.97
2019-03-01T13:48:03.634Z,43.43
2019-03-01T13:50:33.020Z,36.20
2019-03-01T13:53:02.325Z,41.43
2019-03-01T13:55:31.658Z,40.77
2019-03-01T13:58:01.045Z,40.60
2019-03-01T14:00:30.379Z,50.13
2019-03-01T14:03:00.009Z,48.90
2019-03-01T14:05:29.452Z,51.00
2019-03-01T14:08:08.361Z,46.00
2019-03-01T14:10:29.901Z,58.30
2019-03-01T14:12:59.234Z,38.93
2019-03-01T14:15:29.976Z,39.73
2019-03-01T14:18:02.442Z,36.87
2019-03-01T14:20:32.102Z,46.40
2019-03-01T14:23:01.392Z,48.07
2019-03-01T14:25:30.741Z,42.03
2019-03-01T14:28:02.060Z,43.17
2019-03-01T14:30:33.414Z,34.30
2019-03-01T14:33:03.272Z,39.77
2019-03-01T14:35:32.597Z,29.93
2019-03-01T14:38:05.359Z,32.23
2019-03-01T14:40:34.725Z,36.40
2019-03-01T14:43:04.170Z,34.13
2019-03-01T14:45:33.488Z,33.60
2019-03-01T14:48:04.991Z,47.27
2019-03-01T14:50:34.749Z,38.80
2019-03-01T14:53:04.535Z,35.83
2019-03-01T14:55:37.049Z,33.00
2019-03-01T14:58:22.309Z,36.93
2019-03-01T15:01:15.690Z,31.33
2019-03-01T15:03:44.996Z,35.73
2019-03-01T15:06:18.690Z,32.13
2019-03-01T15:08:46.405Z,33.80
2019-03-01T15:11:17.709Z,34.93
2019-03-01T15:13:48.317Z,33.60
2019-03-01T15:16:17.900Z,43.13
2019-03-01T15:18:47.213Z,41.07
2019-03-01T15:21:16.880Z,40.57
2019-03-01T15:23:46.303Z,57.60
2019-03-01T15:26:15.654Z,53.90
2019-03-01T15:28:55.351Z,33.93
2019-03-01T15:31:24.290Z,42.37
2019-03-01T15:33:53.630Z,35.37
2019-03-01T15:36:22.926Z,35.53
2019-03-01T15:38:52.241Z,33.63
2019-03-01T15:41:21.659Z,42.63
2019-03-01T15:43:51.326Z,34.30
2019-03-01T15:46:20.667Z,40.27
2019-03-01T15:48:50.032Z,40.37
2019-03-01T15:51:19.704Z,37.90
2019-03-01T15:53:49.037Z,34.23
2019-03-01T15:56:22.029Z,45.10
2019-03-01T15:58:49.832Z,35.00
2019-03-01T16:01:19.507Z,37.37
2019-03-01T16:03:48.838Z,43.43
2019-03-01T16:06:22.135Z,35.53
2019-03-01T16:08:49.559Z,38.70
2019-03-01T16:11:20.960Z,38.93
2019-03-01T16:13:50.302Z,45.63
2019-03-01T16:16:19.641Z,43.47
2019-03-01T16:18:48.956Z,37.23
2019-03-01T16:21:18.647Z,37.57
2019-03-01T16:23:50.803Z,36.70
2019-03-01T16:26:29.440Z,40.20
2019-03-01T16:28:51.692Z,43.40
2019-03-01T16:31:21.017Z,37.17
2019-03-01T16:33:50.325Z,35.67
2019-03-01T16:36:33.343Z,35.97
2019-03-01T16:39:03.356Z,33.17
2019-03-01T16:41:32.704Z,36.80
2019-03-01T16:44:06.328Z,44.00
2019-03-01T16:46:33.361Z,46.80
2019-03-01T16:49:02.694Z,44.20
2019-03-01T16:51:32.332Z,49.20
2019-03-01T16:54:02.217Z,51.00
2019-03-01T16:56:34.545Z,46.70
2019-03-01T16:59:03.849Z,47.07
2019-03-01T17:01:33.740Z,57.97
2019-03-01T17:04:03.083Z,52.50
2019-03-01T17:06:32.422Z,41.27
2019-03-01T17:09:01.835Z,43.43
2019-03-01T17:11:31.213Z,55.67
2019-03-01T17:14:02.670Z,55.37
2019-03-01T17:16:31.729Z,45.80
2019-03-01T17:19:01.462Z,49.47
2019-03-01T17:21:30.833Z,54.73
2019-03-01T17:24:00.173Z,45.57
2019-03-01T17:26:29.963Z,50.20
2019-03-01T17:29:03.184Z,52.40
2019-03-01T17:31:33.461Z,57.17
2019-03-01T17:34:04.495Z,51.17
2019-03-01T17:36:34.073Z,63.07
2019-03-01T17:39:04.306Z,56.77
2019-03-01T17:41:33.630Z,59.87
2019-03-01T17:44:04.834Z,51.80
2019-03-01T17:46:34.057Z,48.00
2019-03-01T17:49:03.732Z,43.30
2019-03-01T17:51:38.215Z,50.47
2019-03-01T17:54:07.809Z,45.10
2019-03-01T17:56:37.233Z,44.43
2019-03-01T17:59:08.392Z,29.87
2019-03-01T18:01:39.023Z,37.77
2019-03-01T18:04:08.524Z,32.00
2019-03-01T18:06:37.914Z,37.93
2019-03-01T18:09:09.901Z,38.77
2019-03-01T18:11:40.727Z,28.37
2019-03-01T18:14:10.318Z,36.00
2019-03-01T18:16:39.650Z,43.47
2019-03-01T18:19:08.972Z,38.73
2019-03-01T18:21:38.304Z,31.20
2019-03-01T18:24:07.642Z,34.03
2019-03-01T18:26:39.974Z,37.10
2019-03-01T18:29:08.469Z,32.53
2019-03-01T18:31:38.053Z,30.47
2019-03-01T18:34:07.394Z,26.13
2019-03-01T18:36:36.782Z,24.90
2019-03-01T18:39:12.252Z,29.13
2019-03-01T18:41:41.653Z,30.23
2019-03-01T18:44:10.991Z,20.60
2019-03-01T18:46:40.314Z,21.10
2019-03-01T18:49:09.669Z,24.60
2019-03-01T18:51:42.325Z,18.07
2019-03-01T18:54:10.056Z,13.60
2019-03-01T18:56:39.300Z,13.40
2019-03-01T18:59:08.644Z,13.03
2019-03-01T19:01:37.974Z,11.87
2019-03-01T19:04:07.691Z,12.10
2019-03-01T19:06:36.984Z,17.17
2019-03-01T19:09:08.028Z,13.47
2019-03-01T19:11:37.957Z,10.53
2019-03-01T19:14:08.155Z,13.43
2019-03-01T19:16:37.463Z,12.87
2019-03-01T19:19:06.800Z,11.07
2019-03-01T19:21:36.142Z,16.30
2019-03-01T19:24:08.058Z,14.90
2019-03-01T19:26:37.339Z,13.67
2019-03-01T19:29:06.863Z,12.50
2019-03-01T19:31:36.205Z,20.07
2019-03-01T19:34:05.552Z,13.53
2019-03-01T19:36:35.529Z,12.90
2019-03-01T19:39:08.286Z,16.00
2019-03-01T19:41:37.592Z,15.43
2019-03-01T19:44:06.961Z,12.33
2019-03-01T19:46:36.599Z,12.80
2019-03-01T19:49:06.186Z,10.37
2019-03-01T19:51:37.495Z,13.20
2019-03-01T19:54:08.324Z,13.60
2019-03-01T19:56:37.880Z,13.70
2019-03-01T19:59:07.598Z,19.20
2019-03-01T20:01:37.384Z,16.97
2019-03-01T20:04:06.708Z,20.03
2019-03-01T20:06:36.045Z,13.70
2019-03-01T20:09:05.920Z,14.47
2019-03-01T20:11:35.223Z,16.90
2019-03-01T20:14:09.406Z,17.20
2019-03-01T20:16:41.231Z,14.53
2019-03-01T20:19:10.577Z,16.20
2019-03-01T20:21:41.349Z,14.17
2019-03-01T20:24:11.240Z,14.90
2019-03-01T20:26:40.924Z,17.00
2019-03-01T20:29:10.272Z,15.10
2019-03-01T20:31:42.437Z,16.00
2019-03-01T20:34:11.834Z,21.00
2019-03-01T20:36:41.819Z,19.37
2019-03-01T20:39:15.141Z,17.07
2019-03-01T20:41:46.330Z,17.60
2019-03-01T20:44:18.705Z,18.73
2019-03-01T20:46:49.469Z,26.60
2019-03-01T20:49:30.254Z,29.87
2019-03-01T20:52:02.292Z,23.50
2019-03-01T20:54:30.956Z,20.50
2019-03-01T20:57:00.318Z,21.80
2019-03-01T20:59:30.021Z,28.90
2019-03-01T21:01:59.805Z,30.67
2019-03-01T21:04:29.149Z,26.47
2019-03-01T21:06:58.509Z,39.37
2019-03-01T21:09:28.119Z,22.93
2019-03-01T21:12:01.007Z,23.17
2019-03-01T21:14:28.803Z,25.87
2019-03-01T21:16:58.469Z,21.53
2019-03-01T21:19:27.806Z,25.63
2019-03-01T21:21:57.185Z,27.90
2019-03-01T21:24:27.731Z,33.93
2019-03-01T21:26:57.250Z,28.80
2019-03-01T21:29:26.634Z,25.50
2019-03-01T21:31:56.201Z,24.27
2019-03-01T21:34:26.017Z,30.73
2019-03-01T21:36:55.370Z,30.57
2019-03-01T21:39:25.552Z,23.97
2019-03-01T21:41:55.188Z,25.33
2019-03-01T21:44:24.985Z,27.20
2019-03-01T21:46:54.724Z,27.27
2019-03-01T21:49:24.548Z,30.13
2019-03-01T21:51:55.094Z,31.00
2019-03-01T21:54:25.017Z,33.47
2019-03-01T21:56:56.760Z,31.63
2019-03-01T21:59:25.328Z,31.73
2019-03-01T22:01:57.678Z,29.40
2019-03-01T22:04:28.776Z,28.83
2019-03-01T22:07:01.954Z,37.27
2019-03-01T22:09:29.131Z,29.30
2019-03-01T22:11:58.456Z,31.70
2019-03-01T22:14:27.814Z,34.53
2019-03-01T22:16:57.158Z,26.57
2019-03-01T22:19:26.516Z,29.70
2019-03-01T22:21:58.526Z,24.53
2019-03-01T22:24:27.478Z,25.07
2019-03-01T22:26:56.885Z,29.63
2019-03-01T22:29:26.217Z,27.37
2019-03-01T22:31:55.447Z,28.93
2019-03-01T22:34:27.469Z,26.10
2019-03-01T22:36:55.880Z,32.30
2019-03-01T22:39:25.241Z,29.47
2019-03-01T22:41:54.551Z,29.73
2019-03-01T22:44:23.927Z,36.27
2019-03-01T22:46:53.281Z,33.43
2019-03-01T22:49:22.636Z,27.73
2019-03-01T22:51:52.989Z,29.90
2019-03-01T22:54:23.183Z,37.40
2019-03-01T22:56:52.495Z,42.77
2019-03-01T22:59:22.654Z,30.90
2019-03-01T23:01:55.334Z,38.43
2019-03-01T23:04:26.628Z,29.27
2019-03-01T23:06:55.772Z,38.50
2019-03-01T23:09:25.116Z,34.10
2019-03-01T23:11:54.785Z,39.60
2019-03-01T23:14:27.333Z,29.87
2019-03-01T23:16:55.633Z,43.53
2019-03-01T23:19:25.357Z,38.53
2019-03-01T23:21:54.684Z,37.50
2019-03-01T23:24:24.001Z,40.00
2019-03-01T23:26:53.660Z,36.77
2019-03-01T23:29:24.369Z,42.73
2019-03-01T23:31:53.683Z,44.90
2019-03-01T23:34:23.043Z,43.77
2019-03-01T23:36:52.352Z,38.30
2019-03-01T23:39:24.607Z,40.50
2019-03-01T23:41:52.740Z,42.57
2019-03-01T23:44:22.449Z,40.17
2019-03-01T23:46:52.104Z,42.63
2019-03-01T23:49:24.035Z,49.43
2019-03-01T23:51:52.886Z,42.10
2019-03-01T23:54:22.256Z,40.87
2019-03-01T23:56:51.622Z,42.57
2019-03-01T23:59:23.798Z,42.53
